sensor_id;sensor_type;location;lat;lon;timestamp;temperature;humidity
41324;DHT22;27073;51.128;4.220;2023-05-07T00:01:53;18.60;74.70
41324;DHT22;27073;51.128;4.220;2023-05-07T00:04:19;18.60;75.00
41324;DHT22;27073;51.128;4.220;2023-05-07T00:06:46;18.60;74.90
41324;DHT22;27073;51.128;4.220;2023-05-07T00:09:11;18.50;76.40
41324;DHT22;27073;51.128;4.220;2023-05-07T00:11:38;18.40;78.40
41324;DHT22;27073;51.128;4.220;2023-05-07T00:14:03;18.40;78.70
41324;DHT22;27073;51.128;4.220;2023-05-07T00:16:29;18.40;79.30
41324;DHT22;27073;51.128;4.220;2023-05-07T00:18:55;18.40;80.50
41324;DHT22;27073;51.128;4.220;2023-05-07T00:21:21;18.40;80.80
41324;DHT22;27073;51.128;4.220;2023-05-07T00:23:47;18.40;78.90
41324;DHT22;27073;51.128;4.220;2023-05-07T00:26:13;18.40;79.30
41324;DHT22;27073;51.128;4.220;2023-05-07T00:28:40;18.50;79.00
41324;DHT22;27073;51.128;4.220;2023-05-07T00:31:06;18.40;78.90
41324;DHT22;27073;51.128;4.220;2023-05-07T00:33:32;18.50;77.30
41324;DHT22;27073;51.128;4.220;2023-05-07T00:35:57;18.50;77.40
41324;DHT22;27073;51.128;4.220;2023-05-07T00:38:23;18.40;77.50
41324;DHT22;27073;51.128;4.220;2023-05-07T00:40:49;18.40;78.60
41324;DHT22;27073;51.128;4.220;2023-05-07T00:43:16;18.30;78.80
41324;DHT22;27073;51.128;4.220;2023-05-07T00:45:42;18.40;78.40
41324;DHT22;27073;51.128;4.220;2023-05-07T00:48:08;18.30;78.80
41324;DHT22;27073;51.128;4.220;2023-05-07T00:50:34;18.30;79.50
41324;DHT22;27073;51.128;4.220;2023-05-07T00:53:00;18.40;78.10
41324;DHT22;27073;51.128;4.220;2023-05-07T00:55:26;18.40;77.80
41324;DHT22;27073;51.128;4.220;2023-05-07T00:57:52;18.40;77.30
41324;DHT22;27073;51.128;4.220;2023-05-07T01:00:18;18.40;76.80
41324;DHT22;27073;51.128;4.220;2023-05-07T01:02:45;18.40;75.60
41324;DHT22;27073;51.128;4.220;2023-05-07T01:05:14;18.30;76.80
41324;DHT22;27073;51.128;4.220;2023-05-07T01:07:42;18.40;76.40
41324;DHT22;27073;51.128;4.220;2023-05-07T01:10:09;18.30;76.80
41324;DHT22;27073;51.128;4.220;2023-05-07T01:12:36;18.30;77.60
41324;DHT22;27073;51.128;4.220;2023-05-07T01:15:03;18.20;78.80
41324;DHT22;27073;51.128;4.220;2023-05-07T01:17:32;18.00;80.60
41324;DHT22;27073;51.128;4.220;2023-05-07T01:19:58;18.10;81.40
41324;DHT22;27073;51.128;4.220;2023-05-07T01:22:34;18.00;82.20
41324;DHT22;27073;51.128;4.220;2023-05-07T01:25:03;18.00;83.80
41324;DHT22;27073;51.128;4.220;2023-05-07T01:27:30;18.00;84.00
41324;DHT22;27073;51.128;4.220;2023-05-07T01:29:56;18.00;83.50
41324;DHT22;27073;51.128;4.220;2023-05-07T01:32:32;18.00;83.30
41324;DHT22;27073;51.128;4.220;2023-05-07T01:35:00;17.90;83.60
41324;DHT22;27073;51.128;4.220;2023-05-07T01:37:26;18.00;83.00
41324;DHT22;27073;51.128;4.220;2023-05-07T01:39:53;18.00;82.60
41324;DHT22;27073;51.128;4.220;2023-05-07T01:42:19;18.00;82.80
41324;DHT22;27073;51.128;4.220;2023-05-07T01:44:46;17.90;84.00
41324;DHT22;27073;51.128;4.220;2023-05-07T01:47:12;17.80;85.20
41324;DHT22;27073;51.128;4.220;2023-05-07T01:49:39;17.70;86.70
41324;DHT22;27073;51.128;4.220;2023-05-07T01:52:05;17.70;88.60
41324;DHT22;27073;51.128;4.220;2023-05-07T01:54:31;17.60;89.30
41324;DHT22;27073;51.128;4.220;2023-05-07T01:56:58;17.70;89.10
41324;DHT22;27073;51.128;4.220;2023-05-07T01:59:24;17.90;86.60
41324;DHT22;27073;51.128;4.220;2023-05-07T02:01:50;17.90;84.20
41324;DHT22;27073;51.128;4.220;2023-05-07T02:04:16;18.00;83.20
41324;DHT22;27073;51.128;4.220;2023-05-07T02:06:42;18.00;82.30
41324;DHT22;27073;51.128;4.220;2023-05-07T02:09:10;18.00;81.80
41324;DHT22;27073;51.128;4.220;2023-05-07T02:11:38;18.10;82.00
41324;DHT22;27073;51.128;4.220;2023-05-07T02:14:04;18.10;80.90
41324;DHT22;27073;51.128;4.220;2023-05-07T02:16:30;18.20;80.60
41324;DHT22;27073;51.128;4.220;2023-05-07T02:18:56;18.10;79.70
41324;DHT22;27073;51.128;4.220;2023-05-07T02:21:24;18.20;80.30
41324;DHT22;27073;51.128;4.220;2023-05-07T02:23:50;18.10;80.50
41324;DHT22;27073;51.128;4.220;2023-05-07T02:26:18;18.20;79.80
41324;DHT22;27073;51.128;4.220;2023-05-07T02:28:44;18.10;79.20
41324;DHT22;27073;51.128;4.220;2023-05-07T02:31:10;18.20;79.60
41324;DHT22;27073;51.128;4.220;2023-05-07T02:33:36;18.20;79.30
41324;DHT22;27073;51.128;4.220;2023-05-07T02:36:08;18.20;79.70
41324;DHT22;27073;51.128;4.220;2023-05-07T02:38:38;18.10;81.20
41324;DHT22;27073;51.128;4.220;2023-05-07T02:41:04;18.10;82.30
41324;DHT22;27073;51.128;4.220;2023-05-07T02:43:30;18.10;82.40
41324;DHT22;27073;51.128;4.220;2023-05-07T02:46:07;17.90;84.40
41324;DHT22;27073;51.128;4.220;2023-05-07T02:48:36;18.00;84.20
41324;DHT22;27073;51.128;4.220;2023-05-07T02:51:02;18.20;83.30
41324;DHT22;27073;51.128;4.220;2023-05-07T02:53:29;18.20;82.10
41324;DHT22;27073;51.128;4.220;2023-05-07T02:55:59;18.10;82.50
41324;DHT22;27073;51.128;4.220;2023-05-07T02:58:25;18.10;83.90
41324;DHT22;27073;51.128;4.220;2023-05-07T03:00:52;18.10;85.20
41324;DHT22;27073;51.128;4.220;2023-05-07T03:03:40;18.10;86.00
41324;DHT22;27073;51.128;4.220;2023-05-07T03:06:08;18.10;85.40
41324;DHT22;27073;51.128;4.220;2023-05-07T03:08:34;18.10;85.80
41324;DHT22;27073;51.128;4.220;2023-05-07T03:10:59;18.10;85.60
41324;DHT22;27073;51.128;4.220;2023-05-07T03:13:25;18.00;87.60
41324;DHT22;27073;51.128;4.220;2023-05-07T03:15:51;18.10;86.60
41324;DHT22;27073;51.128;4.220;2023-05-07T03:18:17;18.10;86.70
41324;DHT22;27073;51.128;4.220;2023-05-07T03:20:43;18.10;86.70
41324;DHT22;27073;51.128;4.220;2023-05-07T03:23:08;18.10;86.80
41324;DHT22;27073;51.128;4.220;2023-05-07T03:25:35;18.10;85.90
41324;DHT22;27073;51.128;4.220;2023-05-07T03:28:01;18.10;87.20
41324;DHT22;27073;51.128;4.220;2023-05-07T03:30:35;18.20;85.20
41324;DHT22;27073;51.128;4.220;2023-05-07T03:33:01;18.30;83.30
41324;DHT22;27073;51.128;4.220;2023-05-07T03:35:27;18.20;83.80
41324;DHT22;27073;51.128;4.220;2023-05-07T03:37:53;18.20;84.70
41324;DHT22;27073;51.128;4.220;2023-05-07T03:40:21;18.20;84.60
41324;DHT22;27073;51.128;4.220;2023-05-07T03:42:50;18.20;85.40
41324;DHT22;27073;51.128;4.220;2023-05-07T03:45:19;18.20;87.10
41324;DHT22;27073;51.128;4.220;2023-05-07T03:47:51;18.10;87.70
41324;DHT22;27073;51.128;4.220;2023-05-07T03:50:19;18.10;87.40
41324;DHT22;27073;51.128;4.220;2023-05-07T03:52:45;18.10;88.00
41324;DHT22;27073;51.128;4.220;2023-05-07T03:55:12;18.20;88.00
41324;DHT22;27073;51.128;4.220;2023-05-07T03:57:41;18.20;87.60
41324;DHT22;27073;51.128;4.220;2023-05-07T04:00:08;18.20;87.00
41324;DHT22;27073;51.128;4.220;2023-05-07T04:02:46;18.20;87.50
41324;DHT22;27073;51.128;4.220;2023-05-07T04:05:14;18.20;88.30
41324;DHT22;27073;51.128;4.220;2023-05-07T04:07:41;18.10;89.00
41324;DHT22;27073;51.128;4.220;2023-05-07T04:10:08;18.00;90.00
41324;DHT22;27073;51.128;4.220;2023-05-07T04:12:34;18.10;90.50
41324;DHT22;27073;51.128;4.220;2023-05-07T04:15:00;18.20;90.00
41324;DHT22;27073;51.128;4.220;2023-05-07T04:17:27;18.20;88.00
41324;DHT22;27073;51.128;4.220;2023-05-07T04:19:52;18.10;89.00
41324;DHT22;27073;51.128;4.220;2023-05-07T04:22:18;18.20;89.80
41324;DHT22;27073;51.128;4.220;2023-05-07T04:24:44;18.20;90.00
41324;DHT22;27073;51.128;4.220;2023-05-07T04:27:12;18.20;90.30
41324;DHT22;27073;51.128;4.220;2023-05-07T04:29:38;18.20;90.50
41324;DHT22;27073;51.128;4.220;2023-05-07T04:32:09;18.20;90.60
41324;DHT22;27073;51.128;4.220;2023-05-07T04:34:38;18.30;90.40
41324;DHT22;27073;51.128;4.220;2023-05-07T04:37:03;18.30;89.90
41324;DHT22;27073;51.128;4.220;2023-05-07T04:39:30;18.20;90.80
41324;DHT22;27073;51.128;4.220;2023-05-07T04:41:57;18.30;90.70
41324;DHT22;27073;51.128;4.220;2023-05-07T04:44:23;18.30;90.60
41324;DHT22;27073;51.128;4.220;2023-05-07T04:46:50;18.30;91.10
41324;DHT22;27073;51.128;4.220;2023-05-07T04:49:16;18.30;91.60
41324;DHT22;27073;51.128;4.220;2023-05-07T04:51:43;18.30;91.80
41324;DHT22;27073;51.128;4.220;2023-05-07T04:54:10;18.30;91.70
41324;DHT22;27073;51.128;4.220;2023-05-07T04:56:36;18.40;91.50
41324;DHT22;27073;51.128;4.220;2023-05-07T04:59:03;18.40;91.10
41324;DHT22;27073;51.128;4.220;2023-05-07T05:01:30;18.40;91.00
41324;DHT22;27073;51.128;4.220;2023-05-07T05:03:56;18.50;90.40
41324;DHT22;27073;51.128;4.220;2023-05-07T05:06:22;18.40;91.00
41324;DHT22;27073;51.128;4.220;2023-05-07T05:08:49;18.50;90.70
41324;DHT22;27073;51.128;4.220;2023-05-07T05:11:15;18.50;90.20
41324;DHT22;27073;51.128;4.220;2023-05-07T05:13:41;18.60;88.90
41324;DHT22;27073;51.128;4.220;2023-05-07T05:16:12;18.70;87.50
41324;DHT22;27073;51.128;4.220;2023-05-07T05:18:38;18.70;87.00
41324;DHT22;27073;51.128;4.220;2023-05-07T05:21:04;18.70;87.30
41324;DHT22;27073;51.128;4.220;2023-05-07T05:23:31;18.60;88.10
41324;DHT22;27073;51.128;4.220;2023-05-07T05:25:58;18.50;90.60
41324;DHT22;27073;51.128;4.220;2023-05-07T05:28:26;18.50;91.40
41324;DHT22;27073;51.128;4.220;2023-05-07T05:30:53;18.50;91.00
41324;DHT22;27073;51.128;4.220;2023-05-07T05:33:19;18.60;90.50
41324;DHT22;27073;51.128;4.220;2023-05-07T05:35:45;18.70;90.10
41324;DHT22;27073;51.128;4.220;2023-05-07T05:38:12;18.60;90.00
41324;DHT22;27073;51.128;4.220;2023-05-07T05:40:38;18.60;90.30
41324;DHT22;27073;51.128;4.220;2023-05-07T05:43:05;18.70;90.00
41324;DHT22;27073;51.128;4.220;2023-05-07T05:45:31;18.70;90.20
41324;DHT22;27073;51.128;4.220;2023-05-07T05:47:57;18.70;90.50
41324;DHT22;27073;51.128;4.220;2023-05-07T05:50:23;18.70;90.80
41324;DHT22;27073;51.128;4.220;2023-05-07T05:52:49;18.70;90.90
41324;DHT22;27073;51.128;4.220;2023-05-07T05:55:16;18.80;90.60
41324;DHT22;27073;51.128;4.220;2023-05-07T05:57:42;18.80;90.30
41324;DHT22;27073;51.128;4.220;2023-05-07T06:00:09;18.80;90.40
41324;DHT22;27073;51.128;4.220;2023-05-07T06:02:44;18.80;90.70
41324;DHT22;27073;51.128;4.220;2023-05-07T06:05:11;18.90;90.50
41324;DHT22;27073;51.128;4.220;2023-05-07T06:07:37;19.00;89.30
41324;DHT22;27073;51.128;4.220;2023-05-07T06:10:04;19.00;89.00
41324;DHT22;27073;51.128;4.220;2023-05-07T06:12:32;19.10;87.10
41324;DHT22;27073;51.128;4.220;2023-05-07T06:15:00;19.10;88.50
41324;DHT22;27073;51.128;4.220;2023-05-07T06:17:27;19.20;87.30
41324;DHT22;27073;51.128;4.220;2023-05-07T06:19:53;19.10;87.30
41324;DHT22;27073;51.128;4.220;2023-05-07T06:22:20;18.70;89.60
41324;DHT22;27073;51.128;4.220;2023-05-07T06:24:45;18.60;93.80
41324;DHT22;27073;51.128;4.220;2023-05-07T06:27:12;18.60;93.40
41324;DHT22;27073;51.128;4.220;2023-05-07T06:29:39;18.30;96.80
41324;DHT22;27073;51.128;4.220;2023-05-07T06:32:12;18.20;97.30
41324;DHT22;27073;51.128;4.220;2023-05-07T06:34:40;18.30;98.00
41324;DHT22;27073;51.128;4.220;2023-05-07T06:37:07;18.00;98.30
41324;DHT22;27073;51.128;4.220;2023-05-07T06:39:58;18.10;99.70
41324;DHT22;27073;51.128;4.220;2023-05-07T06:42:24;18.30;99.30
41324;DHT22;27073;51.128;4.220;2023-05-07T06:44:50;18.40;99.50
41324;DHT22;27073;51.128;4.220;2023-05-07T06:47:17;18.50;98.60
41324;DHT22;27073;51.128;4.220;2023-05-07T06:49:46;18.40;98.60
41324;DHT22;27073;51.128;4.220;2023-05-07T06:52:15;18.20;98.90
41324;DHT22;27073;51.128;4.220;2023-05-07T06:54:41;18.30;99.90
41324;DHT22;27073;51.128;4.220;2023-05-07T06:57:08;18.00;99.90
41324;DHT22;27073;51.128;4.220;2023-05-07T06:59:34;17.90;99.90
41324;DHT22;27073;51.128;4.220;2023-05-07T07:02:00;17.40;99.90
41324;DHT22;27073;51.128;4.220;2023-05-07T07:04:26;17.60;99.90
41324;DHT22;27073;51.128;4.220;2023-05-07T07:06:59;17.70;99.90
41324;DHT22;27073;51.128;4.220;2023-05-07T07:09:25;17.90;99.90
41324;DHT22;27073;51.128;4.220;2023-05-07T07:11:52;17.90;99.90
41324;DHT22;27073;51.128;4.220;2023-05-07T07:14:18;18.00;99.90
41324;DHT22;27073;51.128;4.220;2023-05-07T07:16:48;17.70;99.90
41324;DHT22;27073;51.128;4.220;2023-05-07T07:19:16;17.30;99.90
41324;DHT22;27073;51.128;4.220;2023-05-07T07:21:42;17.30;99.90
41324;DHT22;27073;51.128;4.220;2023-05-07T07:24:11;17.50;99.90
41324;DHT22;27073;51.128;4.220;2023-05-07T07:26:37;17.60;99.90
41324;DHT22;27073;51.128;4.220;2023-05-07T07:29:03;17.60;99.90
41324;DHT22;27073;51.128;4.220;2023-05-07T07:31:28;17.30;99.90
41324;DHT22;27073;51.128;4.220;2023-05-07T07:33:54;17.40;99.90
41324;DHT22;27073;51.128;4.220;2023-05-07T07:36:20;17.40;99.90
41324;DHT22;27073;51.128;4.220;2023-05-07T07:38:46;17.30;99.90
41324;DHT22;27073;51.128;4.220;2023-05-07T07:41:13;17.30;99.90
41324;DHT22;27073;51.128;4.220;2023-05-07T07:43:38;17.30;99.90
41324;DHT22;27073;51.128;4.220;2023-05-07T07:46:04;17.20;99.90
41324;DHT22;27073;51.128;4.220;2023-05-07T07:48:31;17.30;99.90
41324;DHT22;27073;51.128;4.220;2023-05-07T07:50:57;17.30;99.90
41324;DHT22;27073;51.128;4.220;2023-05-07T07:53:23;17.40;99.90
41324;DHT22;27073;51.128;4.220;2023-05-07T07:55:49;17.50;99.90
41324;DHT22;27073;51.128;4.220;2023-05-07T07:58:18;17.60;99.90
41324;DHT22;27073;51.128;4.220;2023-05-07T08:00:44;17.50;99.90
41324;DHT22;27073;51.128;4.220;2023-05-07T08:03:10;17.50;99.90
41324;DHT22;27073;51.128;4.220;2023-05-07T08:05:40;17.30;99.90
41324;DHT22;27073;51.128;4.220;2023-05-07T08:08:08;17.30;99.90
41324;DHT22;27073;51.128;4.220;2023-05-07T08:10:36;17.20;99.90
41324;DHT22;27073;51.128;4.220;2023-05-07T08:13:08;17.20;99.90
41324;DHT22;27073;51.128;4.220;2023-05-07T08:15:36;17.00;99.90
41324;DHT22;27073;51.128;4.220;2023-05-07T08:18:02;17.10;99.90
41324;DHT22;27073;51.128;4.220;2023-05-07T08:20:29;17.20;99.90
41324;DHT22;27073;51.128;4.220;2023-05-07T08:22:55;17.40;99.90
41324;DHT22;27073;51.128;4.220;2023-05-07T08:25:22;17.60;99.90
41324;DHT22;27073;51.128;4.220;2023-05-07T08:27:48;17.40;99.90
41324;DHT22;27073;51.128;4.220;2023-05-07T08:30:15;17.50;99.90
41324;DHT22;27073;51.128;4.220;2023-05-07T08:32:41;17.20;99.90
41324;DHT22;27073;51.128;4.220;2023-05-07T08:35:07;17.10;99.90
41324;DHT22;27073;51.128;4.220;2023-05-07T08:37:33;17.30;99.90
41324;DHT22;27073;51.128;4.220;2023-05-07T08:40:00;17.50;99.90
41324;DHT22;27073;51.128;4.220;2023-05-07T08:42:31;17.70;99.90
41324;DHT22;27073;51.128;4.220;2023-05-07T08:45:02;17.50;99.90
41324;DHT22;27073;51.128;4.220;2023-05-07T08:47:41;17.30;99.90
41324;DHT22;27073;51.128;4.220;2023-05-07T08:50:08;17.00;99.90
41324;DHT22;27073;51.128;4.220;2023-05-07T08:52:35;17.20;99.90
41324;DHT22;27073;51.128;4.220;2023-05-07T08:55:02;17.40;99.90
41324;DHT22;27073;51.128;4.220;2023-05-07T08:57:29;17.50;99.90
41324;DHT22;27073;51.128;4.220;2023-05-07T08:59:55;17.60;99.90
41324;DHT22;27073;51.128;4.220;2023-05-07T09:02:21;17.30;99.90
41324;DHT22;27073;51.128;4.220;2023-05-07T09:04:47;17.50;99.90
41324;DHT22;27073;51.128;4.220;2023-05-07T09:07:13;17.40;99.90
41324;DHT22;27073;51.128;4.220;2023-05-07T09:09:44;17.50;99.90
41324;DHT22;27073;51.128;4.220;2023-05-07T09:12:11;17.30;99.90
41324;DHT22;27073;51.128;4.220;2023-05-07T09:14:37;17.50;99.90
41324;DHT22;27073;51.128;4.220;2023-05-07T09:17:03;17.60;99.90
41324;DHT22;27073;51.128;4.220;2023-05-07T09:19:30;17.40;99.90
41324;DHT22;27073;51.128;4.220;2023-05-07T09:22:00;17.30;99.90
41324;DHT22;27073;51.128;4.220;2023-05-07T09:24:29;17.40;99.90
41324;DHT22;27073;51.128;4.220;2023-05-07T09:27:00;17.20;99.90
41324;DHT22;27073;51.128;4.220;2023-05-07T09:29:27;17.10;99.90
41324;DHT22;27073;51.128;4.220;2023-05-07T09:32:03;17.20;99.90
41324;DHT22;27073;51.128;4.220;2023-05-07T09:34:30;17.10;99.90
41324;DHT22;27073;51.128;4.220;2023-05-07T09:37:01;16.90;99.90
41324;DHT22;27073;51.128;4.220;2023-05-07T09:39:48;16.90;99.90
41324;DHT22;27073;51.128;4.220;2023-05-07T09:42:23;17.10;99.90
41324;DHT22;27073;51.128;4.220;2023-05-07T09:44:50;17.00;99.90
41324;DHT22;27073;51.128;4.220;2023-05-07T09:47:20;16.90;99.90
41324;DHT22;27073;51.128;4.220;2023-05-07T09:49:56;16.80;99.90
41324;DHT22;27073;51.128;4.220;2023-05-07T09:52:23;16.80;99.90
41324;DHT22;27073;51.128;4.220;2023-05-07T09:54:53;16.80;99.90
41324;DHT22;27073;51.128;4.220;2023-05-07T09:57:24;16.90;99.90
41324;DHT22;27073;51.128;4.220;2023-05-07T09:59:56;16.90;99.90
41324;DHT22;27073;51.128;4.220;2023-05-07T10:02:23;16.90;99.90
41324;DHT22;27073;51.128;4.220;2023-05-07T10:04:52;17.00;99.90
41324;DHT22;27073;51.128;4.220;2023-05-07T10:07:24;16.90;99.90
41324;DHT22;27073;51.128;4.220;2023-05-07T10:09:55;17.00;99.90
41324;DHT22;27073;51.128;4.220;2023-05-07T10:12:31;17.00;99.90
41324;DHT22;27073;51.128;4.220;2023-05-07T10:15:07;16.90;99.90
41324;DHT22;27073;51.128;4.220;2023-05-07T10:17:40;17.10;99.90
41324;DHT22;27073;51.128;4.220;2023-05-07T10:20:08;17.20;99.90
41324;DHT22;27073;51.128;4.220;2023-05-07T10:22:43;17.30;99.90
41324;DHT22;27073;51.128;4.220;2023-05-07T10:25:30;17.20;99.90
41324;DHT22;27073;51.128;4.220;2023-05-07T10:28:03;17.50;99.90
41324;DHT22;27073;51.128;4.220;2023-05-07T10:33:25;17.30;99.90
41324;DHT22;27073;51.128;4.220;2023-05-07T10:35:57;17.30;99.90
41324;DHT22;27073;51.128;4.220;2023-05-07T10:38:26;17.40;99.90
41324;DHT22;27073;51.128;4.220;2023-05-07T10:40:53;17.20;99.90
41324;DHT22;27073;51.128;4.220;2023-05-07T10:43:19;17.30;99.90
41324;DHT22;27073;51.128;4.220;2023-05-07T10:46:14;17.50;99.90
41324;DHT22;27073;51.128;4.220;2023-05-07T10:51:30;17.60;99.90
41324;DHT22;27073;51.128;4.220;2023-05-07T10:56:37;17.90;99.90
41324;DHT22;27073;51.128;4.220;2023-05-07T11:01:52;18.10;99.90
41324;DHT22;27073;51.128;4.220;2023-05-07T11:04:24;18.10;99.90
41324;DHT22;27073;51.128;4.220;2023-05-07T11:09:55;18.00;99.90
41324;DHT22;27073;51.128;4.220;2023-05-07T11:15:15;18.30;99.90
41324;DHT22;27073;51.128;4.220;2023-05-07T11:17:59;18.20;99.90
41324;DHT22;27073;51.128;4.220;2023-05-07T11:20:56;18.40;99.90
41324;DHT22;27073;51.128;4.220;2023-05-07T11:26:14;18.90;99.90
41324;DHT22;27073;51.128;4.220;2023-05-07T11:28:43;19.20;99.90
41324;DHT22;27073;51.128;4.220;2023-05-07T11:31:10;19.30;99.90
41324;DHT22;27073;51.128;4.220;2023-05-07T11:33:37;19.50;99.90
41324;DHT22;27073;51.128;4.220;2023-05-07T11:36:08;19.60;99.90
41324;DHT22;27073;51.128;4.220;2023-05-07T11:38:39;19.80;99.90
41324;DHT22;27073;51.128;4.220;2023-05-07T11:41:05;19.90;99.90
41324;DHT22;27073;51.128;4.220;2023-05-07T11:43:32;19.80;99.90
41324;DHT22;27073;51.128;4.220;2023-05-07T11:46:11;19.80;99.90
41324;DHT22;27073;51.128;4.220;2023-05-07T11:48:38;20.00;99.90
41324;DHT22;27073;51.128;4.220;2023-05-07T11:51:07;20.00;99.90
41324;DHT22;27073;51.128;4.220;2023-05-07T11:53:39;20.30;99.90
41324;DHT22;27073;51.128;4.220;2023-05-07T11:56:10;20.30;99.90
41324;DHT22;27073;51.128;4.220;2023-05-07T11:58:36;20.50;99.90
41324;DHT22;27073;51.128;4.220;2023-05-07T12:01:02;20.60;99.90
41324;DHT22;27073;51.128;4.220;2023-05-07T12:03:27;20.70;99.90
41324;DHT22;27073;51.128;4.220;2023-05-07T12:05:53;20.70;99.90
41324;DHT22;27073;51.128;4.220;2023-05-07T12:08:20;20.70;99.90
41324;DHT22;27073;51.128;4.220;2023-05-07T12:10:49;20.20;99.90
41324;DHT22;27073;51.128;4.220;2023-05-07T12:13:19;20.20;99.90
41324;DHT22;27073;51.128;4.220;2023-05-07T12:15:45;20.30;99.90
41324;DHT22;27073;51.128;4.220;2023-05-07T12:18:12;20.30;99.90
41324;DHT22;27073;51.128;4.220;2023-05-07T12:20:39;20.60;99.90
41324;DHT22;27073;51.128;4.220;2023-05-07T12:23:05;20.80;99.80
41324;DHT22;27073;51.128;4.220;2023-05-07T12:25:32;20.70;99.30
41324;DHT22;27073;51.128;4.220;2023-05-07T12:28:00;20.80;99.90
41324;DHT22;27073;51.128;4.220;2023-05-07T12:30:26;21.00;99.20
41324;DHT22;27073;51.128;4.220;2023-05-07T12:32:55;21.20;99.40
41324;DHT22;27073;51.128;4.220;2023-05-07T12:35:37;21.30;96.70
41324;DHT22;27073;51.128;4.220;2023-05-07T12:38:11;21.60;93.90
41324;DHT22;27073;51.128;4.220;2023-05-07T12:40:42;21.40;96.30
41324;DHT22;27073;51.128;4.220;2023-05-07T12:43:23;21.60;93.00
41324;DHT22;27073;51.128;4.220;2023-05-07T12:45:51;21.70;91.10
41324;DHT22;27073;51.128;4.220;2023-05-07T12:48:17;21.90;90.40
41324;DHT22;27073;51.128;4.220;2023-05-07T12:50:44;21.70;75.80
41324;DHT22;27073;51.128;4.220;2023-05-07T12:53:11;21.70;75.80
41324;DHT22;27073;51.128;4.220;2023-05-07T12:55:51;21.90;78.70
41324;DHT22;27073;51.128;4.220;2023-05-07T12:58:19;21.80;78.50
41324;DHT22;27073;51.128;4.220;2023-05-07T13:00:47;21.60;72.80
41324;DHT22;27073;51.128;4.220;2023-05-07T13:03:24;21.30;80.90
41324;DHT22;27073;51.128;4.220;2023-05-07T13:05:51;21.10;89.00
41324;DHT22;27073;51.128;4.220;2023-05-07T13:08:31;21.40;79.90
41324;DHT22;27073;51.128;4.220;2023-05-07T13:10:59;21.50;75.40
41324;DHT22;27073;51.128;4.220;2023-05-07T13:13:28;21.50;72.40
41324;DHT22;27073;51.128;4.220;2023-05-07T13:15:54;21.70;70.60
41324;DHT22;27073;51.128;4.220;2023-05-07T13:18:20;21.80;68.90
41324;DHT22;27073;51.128;4.220;2023-05-07T13:20:45;21.80;67.40
41324;DHT22;27073;51.128;4.220;2023-05-07T13:23:11;21.70;63.50
41324;DHT22;27073;51.128;4.220;2023-05-07T13:25:37;21.70;66.80
41324;DHT22;27073;51.128;4.220;2023-05-07T13:28:02;21.70;72.00
41324;DHT22;27073;51.128;4.220;2023-05-07T13:30:30;21.60;59.50
41324;DHT22;27073;51.128;4.220;2023-05-07T13:32:56;21.20;58.80
41324;DHT22;27073;51.128;4.220;2023-05-07T13:35:22;20.80;71.60
41324;DHT22;27073;51.128;4.220;2023-05-07T13:37:48;20.90;59.40
41324;DHT22;27073;51.128;4.220;2023-05-07T13:40:14;20.90;62.00
41324;DHT22;27073;51.128;4.220;2023-05-07T13:42:40;21.10;65.80
41324;DHT22;27073;51.128;4.220;2023-05-07T13:45:07;21.30;63.10
41324;DHT22;27073;51.128;4.220;2023-05-07T13:47:33;21.20;47.60
41324;DHT22;27073;51.128;4.220;2023-05-07T13:49:58;21.00;43.90
41324;DHT22;27073;51.128;4.220;2023-05-07T13:52:24;21.00;43.70
41324;DHT22;27073;51.128;4.220;2023-05-07T13:54:51;21.00;44.40
41324;DHT22;27073;51.128;4.220;2023-05-07T13:57:18;20.50;63.60
41324;DHT22;27073;51.128;4.220;2023-05-07T13:59:44;20.60;70.50
41324;DHT22;27073;51.128;4.220;2023-05-07T14:02:09;20.90;71.40
41324;DHT22;27073;51.128;4.220;2023-05-07T14:04:36;21.00;55.80
41324;DHT22;27073;51.128;4.220;2023-05-07T14:07:03;21.00;58.90
41324;DHT22;27073;51.128;4.220;2023-05-07T14:09:28;20.80;56.60
41324;DHT22;27073;51.128;4.220;2023-05-07T14:11:54;21.00;61.80
41324;DHT22;27073;51.128;4.220;2023-05-07T14:14:20;20.90;60.30
41324;DHT22;27073;51.128;4.220;2023-05-07T14:16:46;20.60;57.60
41324;DHT22;27073;51.128;4.220;2023-05-07T14:19:12;20.40;63.10
41324;DHT22;27073;51.128;4.220;2023-05-07T14:21:38;20.30;68.20
41324;DHT22;27073;51.128;4.220;2023-05-07T14:24:06;20.20;77.10
41324;DHT22;27073;51.128;4.220;2023-05-07T14:26:32;20.30;66.70
41324;DHT22;27073;51.128;4.220;2023-05-07T14:28:58;20.60;66.30
41324;DHT22;27073;51.128;4.220;2023-05-07T14:31:24;20.50;68.00
41324;DHT22;27073;51.128;4.220;2023-05-07T14:33:51;20.70;68.00
41324;DHT22;27073;51.128;4.220;2023-05-07T14:36:18;20.70;59.00
41324;DHT22;27073;51.128;4.220;2023-05-07T14:38:46;21.10;66.30
41324;DHT22;27073;51.128;4.220;2023-05-07T14:41:12;21.10;49.30
41324;DHT22;27073;51.128;4.220;2023-05-07T14:43:38;21.50;48.20
41324;DHT22;27073;51.128;4.220;2023-05-07T14:46:03;21.60;48.60
41324;DHT22;27073;51.128;4.220;2023-05-07T14:48:29;22.00;35.50
41324;DHT22;27073;51.128;4.220;2023-05-07T14:50:55;22.50;31.80
41324;DHT22;27073;51.128;4.220;2023-05-07T14:53:22;22.20;25.10
41324;DHT22;27073;51.128;4.220;2023-05-07T14:55:48;22.70;20.70
41324;DHT22;27073;51.128;4.220;2023-05-07T14:58:14;23.00;1.00
41324;DHT22;27073;51.128;4.220;2023-05-07T15:00:40;23.00;1.00
41324;DHT22;27073;51.128;4.220;2023-05-07T15:03:08;23.10;9.20
41324;DHT22;27073;51.128;4.220;2023-05-07T15:05:34;23.00;1.00
41324;DHT22;27073;51.128;4.220;2023-05-07T15:08:00;23.20;1.00
41324;DHT22;27073;51.128;4.220;2023-05-07T15:10:27;23.30;1.00
41324;DHT22;27073;51.128;4.220;2023-05-07T15:12:53;23.20;1.00
41324;DHT22;27073;51.128;4.220;2023-05-07T15:15:19;22.80;1.00
41324;DHT22;27073;51.128;4.220;2023-05-07T15:17:44;22.00;1.00
41324;DHT22;27073;51.128;4.220;2023-05-07T15:20:10;21.90;10.20
41324;DHT22;27073;51.128;4.220;2023-05-07T15:22:36;21.70;25.10
41324;DHT22;27073;51.128;4.220;2023-05-07T15:25:03;22.00;10.20
41324;DHT22;27073;51.128;4.220;2023-05-07T15:27:30;21.40;12.90
41324;DHT22;27073;51.128;4.220;2023-05-07T15:29:56;21.70;7.70
41324;DHT22;27073;51.128;4.220;2023-05-07T15:32:22;22.20;1.00
41324;DHT22;27073;51.128;4.220;2023-05-07T15:34:48;22.60;1.00
41324;DHT22;27073;51.128;4.220;2023-05-07T15:37:14;22.90;1.00
41324;DHT22;27073;51.128;4.220;2023-05-07T15:39:39;23.00;1.00
41324;DHT22;27073;51.128;4.220;2023-05-07T15:42:05;22.90;1.00
41324;DHT22;27073;51.128;4.220;2023-05-07T15:44:31;22.60;1.00
41324;DHT22;27073;51.128;4.220;2023-05-07T15:47:00;22.30;1.00
41324;DHT22;27073;51.128;4.220;2023-05-07T15:49:26;22.30;3.60
41324;DHT22;27073;51.128;4.220;2023-05-07T15:51:51;22.70;1.00
41324;DHT22;27073;51.128;4.220;2023-05-07T15:54:19;23.30;1.00
41324;DHT22;27073;51.128;4.220;2023-05-07T15:56:46;24.10;1.00